Time;durP1;ratioP1;P1;durP2;ratioP2;P2;SDS_P1;SDS_P2;PMS_P1;PMS_P2;Temp;Humidity;BMP_temperature;BMP_pressure;BME280_temperature;BME280_humidity;BME280_pressure;Samples;Min_cycle;Max_cycle;Signal;HPM_P1;HPM_P2
2021/01/03 00:01:39;;;;;;;4.15;3.05;;;2.30;1.00;;;;;;5053589;28;20179;-78
2021/01/03 00:04:21;;;;;;;6.03;2.90;;;2.40;1.00;;;;;;5047982;28;20169;-78
2021/01/03 00:06:53;;;;;;;5.75;2.78;;;2.40;1.00;;;;;;5034965;28;20171;-78
2021/01/03 00:09:23;;;;;;;4.70;2.85;;;2.50;1.00;;;;;;5034901;28;20172;-78
2021/01/03 00:15:14;;;;;;;4.70;2.83;;;2.60;1.00;;;;;;5044035;28;20170;-78
2021/01/03 00:17:46;;;;;;;4.22;2.85;;;2.60;1.00;;;;;;5052211;28;20186;-78
2021/01/03 00:20:19;;;;;;;4.25;2.40;;;2.70;1.00;;;;;;5053511;28;20174;-74
2021/01/03 00:22:57;;;;;;;9.73;3.55;;;2.70;1.00;;;;;;5035981;28;20172;-75
2021/01/03 00:25:25;;;;;;;8.80;3.67;;;2.80;1.00;;;;;;5046004;28;20183;-74
2021/01/03 00:27:52;;;;;;;4.60;2.80;;;2.80;1.00;;;;;;5044002;28;20571;-74
2021/01/03 00:30:20;;;;;;;5.22;3.08;;;2.80;1.00;;;;;;5037018;28;20194;-74
2021/01/03 00:32:46;;;;;;;8.98;2.65;;;2.80;1.00;;;;;;5053101;28;20203;-74
2021/01/03 00:35:16;;;;;;;5.22;3.08;;;2.80;1.00;;;;;;5034554;28;20226;-75
2021/01/03 00:37:43;;;;;;;4.95;2.20;;;2.90;1.00;;;;;;5034027;28;20256;-74
2021/01/03 00:40:12;;;;;;;3.95;2.60;;;2.90;1.00;;;;;;5033071;28;20168;-74
2021/01/03 00:43:21;;;;;;;4.60;2.97;;;3.00;1.00;;;;;;5038852;28;20176;-77
2021/01/03 00:45:47;;;;;;;3.63;2.80;;;3.00;1.00;;;;;;5052659;28;20179;-78
2021/01/03 00:48:13;;;;;;;6.47;2.67;;;2.90;1.00;;;;;;5046718;28;20207;-78
2021/01/03 00:50:39;;;;;;;3.65;2.40;;;2.90;1.00;;;;;;5034497;28;21027;-74
2021/01/03 00:53:09;;;;;;;4.13;2.50;;;2.70;1.00;;;;;;5038113;28;20289;-74
2021/01/03 00:55:39;;;;;;;3.10;2.58;;;2.80;1.00;;;;;;5053861;28;20160;-74
2021/01/03 00:58:09;;;;;;;5.50;2.55;;;2.80;1.00;;;;;;5053593;28;20213;-74
2021/01/03 01:00:35;;;;;;;2.28;1.95;;;2.80;1.00;;;;;;5045123;28;20553;-74
2021/01/03 01:03:04;;;;;;;4.63;2.53;;;2.80;1.00;;;;;;5040813;28;20185;-74
2021/01/03 01:05:30;;;;;;;5.97;2.42;;;2.70;1.00;;;;;;5033895;28;20278;-78
2021/01/03 01:08:15;;;;;;;4.15;2.78;;;2.80;1.00;;;;;;5033792;28;20160;-77
2021/01/03 01:10:45;;;;;;;1.98;1.80;;;2.80;1.00;;;;;;5033690;28;20632;-78
2021/01/03 01:13:15;;;;;;;2.97;2.33;;;2.90;1.00;;;;;;5033521;28;20200;-78
2021/01/03 01:15:41;;;;;;;2.83;2.22;;;3.00;1.00;;;;;;5039775;28;20199;-78
2021/01/03 01:18:09;;;;;;;3.33;2.27;;;2.90;1.00;;;;;;5053645;28;20199;-78
2021/01/03 01:20:36;;;;;;;3.42;2.30;;;3.00;1.00;;;;;;5053753;28;20188;-78
2021/01/03 01:23:04;;;;;;;3.67;2.30;;;3.00;1.00;;;;;;5033955;28;20177;-78
2021/01/03 01:25:31;;;;;;;4.15;2.90;;;3.00;1.00;;;;;;5033868;28;20161;-78
2021/01/03 01:27:57;;;;;;;2.97;2.10;;;3.00;1.00;;;;;;5050454;28;20180;-77
2021/01/03 01:30:25;;;;;;;3.00;2.30;;;3.10;1.00;;;;;;5040905;28;20180;-78
2021/01/03 01:33:05;;;;;;;3.45;2.75;;;3.00;1.00;;;;;;5047524;28;20458;-77
2021/01/03 01:35:34;;;;;;;4.78;2.85;;;3.00;1.00;;;;;;5048804;28;20657;-74
2021/01/03 01:38:01;;;;;;;6.88;2.58;;;3.10;1.00;;;;;;5043855;28;20191;-74
2021/01/03 01:40:30;;;;;;;3.05;2.45;;;3.10;1.00;;;;;;5038033;28;20699;-74
2021/01/03 01:42:56;;;;;;;8.68;2.63;;;3.20;1.00;;;;;;5047600;28;20610;-74
2021/01/03 01:45:27;;;;;;;3.00;2.70;;;3.30;1.00;;;;;;5033313;28;20243;-74
2021/01/03 01:48:09;;;;;;;4.15;2.53;;;3.30;1.00;;;;;;5038078;28;20176;-74
2021/01/03 01:51:05;;;;;;;7.38;3.28;;;3.10;1.00;;;;;;5033624;28;20209;-74
2021/01/03 01:53:54;;;;;;;2.97;2.42;;;3.20;1.00;;;;;;5045871;28;20211;-74
2021/01/03 01:56:43;;;;;;;2.53;2.22;;;3.30;1.00;;;;;;5049325;28;20245;-74
2021/01/03 01:59:24;;;;;;;5.15;3.05;;;3.30;1.00;;;;;;5050669;28;20207;-74
2021/01/03 02:01:57;;;;;;;6.90;3.13;;;3.40;1.00;;;;;;5050851;28;20670;-74
2021/01/03 02:05:00;;;;;;;11.40;2.85;;;3.40;1.00;;;;;;5039018;28;20184;-74
2021/01/03 02:07:34;;;;;;;5.90;3.20;;;3.40;1.00;;;;;;4972253;28;20169;-74
2021/01/03 02:10:24;;;;;;;2.97;2.42;;;3.40;1.00;;;;;;4972010;28;20228;-74
2021/01/03 02:13:10;;;;;;;6.05;3.10;;;3.50;1.00;;;;;;4983079;28;20217;-74
2021/01/03 02:15:46;;;;;;;8.38;2.90;;;3.50;1.00;;;;;;4991197;28;20704;-74
2021/01/03 02:18:17;;;;;;;4.22;2.83;;;3.40;1.00;;;;;;4991406;28;20177;-74
2021/01/03 02:21:14;;;;;;;5.32;3.00;;;3.40;1.00;;;;;;4991838;28;20201;-74
2021/01/03 02:24:04;;;;;;;7.70;3.53;;;3.40;1.00;;;;;;4949047;29;20625;-74
2021/01/03 02:26:54;;;;;;;4.53;2.40;;;3.20;1.00;;;;;;4952278;29;20226;-74
2021/01/03 02:29:24;;;;;;;4.65;2.92;;;3.30;1.00;;;;;;4950861;28;20191;-74
2021/01/03 02:31:54;;;;;;;4.65;3.33;;;3.40;1.00;;;;;;4966395;28;20179;-74
2021/01/03 02:34:33;;;;;;;4.28;2.80;;;3.50;1.00;;;;;;4969603;28;20186;-74
2021/01/03 02:37:07;;;;;;;5.10;3.03;;;3.50;1.00;;;;;;4952652;29;20178;-78
2021/01/03 02:40:03;;;;;;;8.35;2.83;;;3.60;1.00;;;;;;4958039;28;20636;-77
2021/01/03 02:42:32;;;;;;;4.60;3.45;;;3.50;1.00;;;;;;5012317;28;20189;-79
2021/01/03 02:45:13;;;;;;;5.75;3.28;;;3.60;1.00;;;;;;4998174;28;20177;-77
2021/01/03 02:48:23;;;;;;;5.45;2.97;;;3.70;1.00;;;;;;5022198;28;20625;-78
2021/01/03 02:50:52;;;;;;;4.80;2.97;;;3.60;1.00;;;;;;4997201;28;20208;-77
2021/01/03 02:53:33;;;;;;;4.88;3.50;;;3.60;1.00;;;;;;5014170;28;20221;-77
2021/01/03 02:56:04;;;;;;;4.75;3.42;;;3.70;1.00;;;;;;5014367;28;20573;-77
2021/01/03 02:58:29;;;;;;;9.77;3.55;;;3.60;1.00;;;;;;5014036;28;20192;-77
2021/01/03 03:00:55;;;;;;;7.43;3.30;;;3.70;1.00;;;;;;5032615;28;20615;-77
2021/01/03 03:03:21;;;;;;;4.47;3.60;;;3.70;1.00;;;;;;5035938;28;20164;-77
2021/01/03 03:05:48;;;;;;;3.50;2.33;;;;;;;;;;5035248;28;20710;-74
2021/01/03 03:08:13;;;;;;;5.18;3.10;;;3.70;1.00;;;;;;5050274;28;20604;-74
2021/01/03 03:10:39;;;;;;;4.30;3.13;;;3.70;1.00;;;;;;5034731;28;20187;-74
2021/01/03 03:13:15;;;;;;;4.47;2.72;;;3.70;1.00;;;;;;5035790;28;20192;-74
2021/01/03 03:15:41;;;;;;;3.22;2.90;;;3.60;1.00;;;;;;5035772;28;20620;-74
2021/01/03 03:18:09;;;;;;;4.33;3.57;;;3.60;1.00;;;;;;5034407;28;20255;-74
2021/01/03 03:20:36;;;;;;;8.27;4.43;;;3.70;1.00;;;;;;5035846;28;20210;-74
2021/01/03 03:23:02;;;;;;;7.13;3.60;;;3.70;1.00;;;;;;5039702;28;20176;-74
2021/01/03 03:25:48;;;;;;;7.80;3.60;;;3.70;1.00;;;;;;5035526;28;20237;-74
2021/01/03 03:28:16;;;;;;;7.40;3.50;;;3.70;1.00;;;;;;5035367;28;20878;-74
2021/01/03 03:30:41;;;;;;;4.75;3.53;;;3.70;1.00;;;;;;5049575;28;20654;-74
2021/01/03 03:33:07;;;;;;;6.67;3.10;;;;;;;;;;5055137;28;20203;-74
2021/01/03 03:35:35;;;;;;;6.20;3.22;;;3.60;1.00;;;;;;5054954;28;20447;-74
2021/01/03 03:38:09;;;;;;;13.65;4.10;;;3.60;1.00;;;;;;5053764;28;20175;-77
2021/01/03 03:40:38;;;;;;;6.15;3.45;;;3.60;1.00;;;;;;5034166;28;20258;-77
2021/01/03 03:43:21;;;;;;;6.70;3.72;;;3.60;1.00;;;;;;5034954;28;20172;-77
2021/01/03 03:46:03;;;;;;;3.35;2.67;;;3.60;1.00;;;;;;5035233;28;20215;-77
2021/01/03 03:48:40;;;;;;;4.53;2.97;;;3.60;1.00;;;;;;5048397;28;20278;-77
2021/01/03 03:51:06;;;;;;;5.45;3.30;;;3.60;1.00;;;;;;5034501;28;20247;-77
2021/01/03 03:53:34;;;;;;;10.50;3.03;;;3.60;1.00;;;;;;5050264;28;20290;-77
2021/01/03 03:56:27;;;;;;;6.55;3.30;;;3.60;1.00;;;;;;5053394;28;20990;-78
2021/01/03 03:58:53;;;;;;;6.18;3.38;;;3.60;1.00;;;;;;5054551;28;20278;-77
2021/01/03 04:01:18;;;;;;;12.40;3.60;;;3.60;1.00;;;;;;5053218;28;20586;-77
2021/01/03 04:03:51;;;;;;;6.23;3.10;;;3.60;1.00;;;;;;5054390;28;20176;-77
2021/01/03 04:06:26;;;;;;;3.55;2.60;;;3.60;1.00;;;;;;5053264;28;20658;-75
2021/01/03 04:08:51;;;;;;;4.63;2.60;;;3.60;1.00;;;;;;5054720;28;20171;-74
2021/01/03 04:11:17;;;;;;;2.67;2.40;;;3.60;1.00;;;;;;5054696;28;20619;-74
2021/01/03 04:13:46;;;;;;;3.63;2.60;;;3.50;1.00;;;;;;5053893;28;20261;-74
2021/01/03 04:16:11;;;;;;;4.97;2.70;;;3.50;1.00;;;;;;5053293;28;20549;-74
2021/01/03 04:18:37;;;;;;;3.60;2.50;;;3.50;1.00;;;;;;5039522;28;20176;-74
2021/01/03 04:21:04;;;;;;;4.37;3.00;;;3.60;1.00;;;;;;5034171;28;20164;-74
2021/01/03 04:23:29;;;;;;;2.40;2.15;;;3.60;1.00;;;;;;5047288;28;20230;-74
2021/01/03 04:25:58;;;;;;;5.23;3.00;;;3.50;1.00;;;;;;5054448;28;20631;-74
2021/01/03 04:28:28;;;;;;;3.88;2.58;;;3.60;1.00;;;;;;5039344;28;20190;-74
2021/01/03 04:30:53;;;;;;;5.80;3.42;;;3.50;1.00;;;;;;5039156;28;20223;-74
2021/01/03 04:33:28;;;;;;;14.63;4.20;;;3.50;1.00;;;;;;5051652;28;20235;-74
2021/01/03 04:36:04;;;;;;;4.60;3.22;;;3.50;1.00;;;;;;5046418;28;20225;-74
2021/01/03 04:38:30;;;;;;;5.32;3.70;;;3.50;1.00;;;;;;5044687;28;20187;-74
2021/01/03 04:40:56;;;;;;;7.57;4.20;;;;;;;;;;5043243;28;20168;-74
2021/01/03 04:43:24;;;;;;;4.93;3.20;;;3.50;1.00;;;;;;5053935;28;20604;-74
2021/01/03 04:45:57;;;;;;;5.43;3.95;;;3.50;1.00;;;;;;5047332;28;20227;-74
2021/01/03 04:48:29;;;;;;;6.95;3.90;;;3.50;1.00;;;;;;5034041;28;20163;-74
2021/01/03 04:51:21;;;;;;;4.32;3.10;;;3.50;1.00;;;;;;5033971;28;20263;-74
2021/01/03 04:54:24;;;;;;;6.30;3.85;;;3.60;1.00;;;;;;5034352;28;20188;-77
2021/01/03 04:56:57;;;;;;;6.60;3.75;;;3.50;1.00;;;;;;5043503;28;20251;-77
2021/01/03 04:59:35;;;;;;;5.03;3.03;;;3.40;1.00;;;;;;5033719;28;20196;-79
2021/01/03 05:02:32;;;;;;;6.28;2.92;;;3.50;1.00;;;;;;5034055;28;20579;-78
2021/01/03 05:05:45;;;;;;;6.65;3.70;;;3.50;1.00;;;;;;5033695;28;20182;-77
2021/01/03 05:08:29;;;;;;;8.40;3.05;;;3.50;1.00;;;;;;5034041;28;20163;-74
2021/01/03 05:11:04;;;;;;;4.45;3.20;;;3.50;1.00;;;;;;5033679;28;20239;-74
2021/01/03 05:14:07;;;;;;;5.82;3.42;;;3.50;1.00;;;;;;5033655;28;20609;-74
2021/01/03 05:16:32;;;;;;;5.97;3.40;;;3.50;1.00;;;;;;5047789;28;20167;-78
2021/01/03 05:19:33;;;;;;;6.20;3.60;;;3.50;1.00;;;;;;5042507;28;20179;-78
2021/01/03 05:22:27;;;;;;;10.18;4.18;;;3.50;1.00;;;;;;5046380;28;20414;-77
2021/01/03 05:24:57;;;;;;;4.88;3.53;;;3.50;1.00;;;;;;5045903;28;20635;-78
2021/01/03 05:27:40;;;;;;;8.93;3.85;;;3.50;1.00;;;;;;5033337;28;20533;-78
2021/01/03 05:30:28;;;;;;;7.57;3.35;;;3.60;1.00;;;;;;5034506;28;20208;-78
2021/01/03 05:33:14;;;;;;;8.07;3.95;;;3.70;1.00;;;;;;5049622;28;20212;-78
2021/01/03 05:35:43;;;;;;;11.98;4.43;;;3.60;1.00;;;;;;5033137;28;20161;-75
2021/01/03 05:38:36;;;;;;;8.23;4.72;;;3.70;1.00;;;;;;5046457;28;20194;-78
2021/01/03 05:41:17;;;;;;;8.68;3.95;;;3.70;1.00;;;;;;5032957;28;20161;-78
2021/01/03 05:44:21;;;;;;;5.88;3.58;;;3.70;1.00;;;;;;5032989;28;20196;-78
2021/01/03 05:50:29;;;;;;;7.20;3.72;;;3.70;1.00;;;;;;5053515;28;20626;-78
2021/01/03 05:52:58;;;;;;;10.77;4.93;;;3.70;1.00;;;;;;5053350;28;20188;-74
2021/01/03 05:55:27;;;;;;;8.57;4.10;;;3.50;1.00;;;;;;5053140;28;20160;-74
2021/01/03 05:58:18;;;;;;;8.43;3.83;;;3.50;1.00;;;;;;5051247;28;20163;-74
2021/01/03 06:00:52;;;;;;;7.82;3.97;;;3.60;1.00;;;;;;5032916;28;20188;-74
2021/01/03 06:03:30;;;;;;;7.05;3.75;;;3.60;1.00;;;;;;5035191;28;20180;-74
2021/01/03 06:06:16;;;;;;;6.82;3.38;;;3.40;1.00;;;;;;5032892;28;20259;-73
2021/01/03 06:08:43;;;;;;;6.03;3.50;;;3.40;1.00;;;;;;5034802;28;20187;-74
2021/01/03 06:11:21;;;;;;;7.45;4.07;;;3.40;1.00;;;;;;5032930;28;20650;-74
2021/01/03 06:13:58;;;;;;;4.35;3.20;;;3.50;1.00;;;;;;5032865;28;20204;-74
2021/01/03 06:16:30;;;;;;;5.18;3.28;;;3.40;1.00;;;;;;5039195;28;20463;-74
2021/01/03 06:19:22;;;;;;;6.38;3.65;;;3.60;1.00;;;;;;5055512;28;20198;-74
2021/01/03 06:21:52;;;;;;;5.28;4.50;;;3.50;1.00;;;;;;5048253;28;20690;-74
2021/01/03 06:24:22;;;;;;;4.97;3.30;;;3.40;1.00;;;;;;5053991;28;21094;-77
2021/01/03 06:27:18;;;;;;;7.15;4.10;;;3.50;1.00;;;;;;5036562;28;20188;-78
2021/01/03 06:30:07;;;;;;;4.85;2.92;;;3.50;1.00;;;;;;5037115;28;20214;-78
2021/01/03 06:33:14;;;;;;;7.60;3.95;;;3.60;1.00;;;;;;5043164;28;20199;-78
2021/01/03 06:39:35;;;;;;;4.72;3.58;;;3.70;1.00;;;;;;5038203;28;20654;-74
2021/01/03 06:42:05;;;;;;;8.65;3.85;;;3.80;1.00;;;;;;5055663;28;20179;-74
2021/01/03 06:44:50;;;;;;;6.40;3.70;;;3.80;1.00;;;;;;5053704;28;20242;-74
2021/01/03 06:47:53;;;;;;;4.22;2.70;;;3.70;1.00;;;;;;5038459;28;20263;-74
2021/01/03 06:50:55;;;;;;;6.05;3.85;;;3.60;1.00;;;;;;5051944;28;20183;-74
2021/01/03 06:53:39;;;;;;;7.47;3.78;;;3.70;1.00;;;;;;5033928;28;20302;-74
2021/01/03 06:56:16;;;;;;;8.77;3.90;;;3.70;1.00;;;;;;5018076;28;20536;-74
2021/01/03 06:59:11;;;;;;;7.05;3.75;;;3.70;1.00;;;;;;5013684;28;20169;-74
2021/01/03 07:01:46;;;;;;;6.13;3.22;;;3.60;1.00;;;;;;5019217;28;20779;-74
2021/01/03 07:04:22;;;;;;;6.32;4.28;;;3.70;1.00;;;;;;5015830;28;20209;-74
2021/01/03 07:06:50;;;;;;;2.03;1.85;;;3.70;1.00;;;;;;5033542;28;20569;-75
2021/01/03 07:09:16;;;;;;;6.93;3.58;;;3.50;1.00;;;;;;5033315;28;20205;-78
2021/01/03 07:11:53;;;;;;;7.83;4.20;;;3.50;1.00;;;;;;5020647;28;20280;-78
2021/01/03 07:18:21;;;;;;;7.10;3.92;;;3.70;1.00;;;;;;5033946;28;20198;-78
2021/01/03 07:21:03;;;;;;;11.25;4.40;;;3.90;1.00;;;;;;5033119;28;20697;-74
2021/01/03 07:23:50;;;;;;;8.77;3.65;;;3.80;1.00;;;;;;5007548;28;20199;-78
2021/01/03 07:26:27;;;;;;;6.97;3.33;;;3.70;1.00;;;;;;5032909;28;20180;-78
2021/01/03 07:29:12;;;;;;;7.38;4.00;;;3.80;1.00;;;;;;5035564;28;20156;-78
2021/01/03 07:32:04;;;;;;;6.60;3.45;;;3.90;1.00;;;;;;5044619;28;20657;-77
2021/01/03 07:34:49;;;;;;;7.30;3.50;;;3.80;1.00;;;;;;5045291;28;20180;-77
2021/01/03 07:37:34;;;;;;;6.00;3.72;;;3.60;1.00;;;;;;5034999;28;20202;-77
2021/01/03 07:40:06;;;;;;;3.55;2.50;;;3.70;1.00;;;;;;5040882;28;20167;-74
2021/01/03 07:42:57;;;;;;;4.30;2.88;;;3.70;1.00;;;;;;5038716;28;20643;-74
2021/01/03 07:45:33;;;;;;;5.68;3.63;;;3.60;1.00;;;;;;5033666;28;20667;-74
2021/01/03 07:48:00;;;;;;;6.07;3.50;;;3.70;1.00;;;;;;5035217;28;20191;-74
2021/01/03 07:50:39;;;;;;;6.13;4.00;;;3.70;1.00;;;;;;5036800;28;20643;-74
2021/01/03 07:53:35;;;;;;;7.05;3.53;;;3.70;1.00;;;;;;5033638;28;20196;-74
2021/01/03 07:56:18;;;;;;;5.30;4.20;;;3.60;1.00;;;;;;5035087;28;20627;-74
2021/01/03 07:58:44;;;;;;;4.70;3.10;;;3.70;1.00;;;;;;5049942;28;20639;-74
2021/01/03 08:01:15;;;;;;;6.33;3.63;;;3.80;1.00;;;;;;5035101;28;20207;-74
2021/01/03 08:03:41;;;;;;;7.18;4.00;;;3.70;1.00;;;;;;5047450;28;20513;-74
2021/01/03 08:06:10;;;;;;;7.60;3.70;;;3.70;1.00;;;;;;5054479;28;20604;-74
2021/01/03 08:08:36;;;;;;;8.02;4.47;;;3.90;1.00;;;;;;5038519;28;20223;-74
2021/01/03 08:11:27;;;;;;;8.10;4.65;;;4.00;1.00;;;;;;5053635;28;20178;-74
2021/01/03 08:14:27;;;;;;;5.53;4.10;;;4.00;1.00;;;;;;5038326;28;20297;-74
2021/01/03 08:16:59;;;;;;;10.68;5.00;;;4.00;1.00;;;;;;5012566;28;20193;-74
2021/01/03 08:19:25;;;;;;;8.10;4.82;;;4.10;1.00;;;;;;5012381;28;20248;-73
2021/01/03 08:21:57;;;;;;;10.45;4.97;;;4.20;1.00;;;;;;5012107;28;20185;-72
2021/01/03 08:24:29;;;;;;;10.73;4.00;;;4.20;1.00;;;;;;5012592;28;20530;-77
2021/01/03 08:27:02;;;;;;;5.65;3.85;;;4.10;1.00;;;;;;5012008;28;20256;-73
2021/01/03 08:29:57;;;;;;;7.13;4.40;;;4.10;1.00;;;;;;5011340;28;20254;-73
2021/01/03 08:32:26;;;;;;;6.28;3.90;;;4.00;1.00;;;;;;5006316;28;20217;-73
2021/01/03 08:34:58;;;;;;;8.35;4.70;;;4.10;1.00;;;;;;5011803;28;20666;-74
2021/01/03 08:37:37;;;;;;;9.93;5.03;;;4.10;1.00;;;;;;5011059;28;20537;-74
2021/01/03 08:40:37;;;;;;;5.95;3.03;;;4.00;1.00;;;;;;5012473;28;20189;-74
2021/01/03 08:43:09;;;;;;;11.43;5.55;;;4.00;1.00;;;;;;4953614;29;20238;-74
2021/01/03 08:45:40;;;;;;;10.25;4.38;;;4.10;1.00;;;;;;4953669;29;20183;-73
2021/01/03 08:48:10;;;;;;;7.43;4.63;;;4.10;1.00;;;;;;4953210;29;20191;-74
2021/01/03 08:50:39;;;;;;;9.38;4.53;;;4.20;1.00;;;;;;4953576;29;20520;-74
2021/01/03 08:53:09;;;;;;;6.15;4.38;;;4.20;1.00;;;;;;4951070;28;20304;-74
2021/01/03 08:56:06;;;;;;;9.50;4.70;;;4.20;1.00;;;;;;4975702;28;20527;-78
2021/01/03 08:58:38;;;;;;;9.73;4.85;;;4.30;1.00;;;;;;4992145;28;20679;-79
2021/01/03 09:01:06;;;;;;;14.60;5.43;;;4.40;1.00;;;;;;4992406;28;20315;-78
2021/01/03 09:04:05;;;;;;;7.63;5.07;;;4.40;1.00;;;;;;4986998;28;20182;-78
2021/01/03 09:06:55;;;;;;;6.15;3.42;;;4.30;1.00;;;;;;4983527;28;20185;-78
2021/01/03 09:09:26;;;;;;;9.75;4.78;;;4.20;1.00;;;;;;4992007;28;20178;-78
2021/01/03 09:12:11;;;;;;;9.88;5.22;;;4.40;1.00;;;;;;4991683;28;20203;-79
2021/01/03 09:14:51;;;;;;;8.52;5.07;;;4.60;1.00;;;;;;4991437;28;20201;-78
2021/01/03 09:17:33;;;;;;;9.90;5.30;;;4.40;1.00;;;;;;4992102;28;20170;-78
2021/01/03 09:20:37;;;;;;;9.43;4.80;;;4.40;1.00;;;;;;5053332;28;20159;-78
2021/01/03 09:23:45;;;;;;;9.57;5.28;;;4.40;1.00;;;;;;5041871;28;20183;-77
2021/01/03 09:26:16;;;;;;;8.20;5.03;;;4.40;1.00;;;;;;5049097;28;20168;-74
2021/01/03 09:29:08;;;;;;;6.30;4.05;;;4.50;1.00;;;;;;5040371;28;20176;-74
2021/01/03 09:31:35;;;;;;;9.70;5.25;;;4.60;1.00;;;;;;5033398;28;20164;-74
2021/01/03 09:34:18;;;;;;;11.35;5.30;;;4.50;1.00;;;;;;5031945;28;20212;-74
2021/01/03 09:36:53;;;;;;;11.18;5.18;;;4.50;1.00;;;;;;5035843;28;20183;-74
2021/01/03 09:39:53;;;;;;;10.45;5.68;;;4.50;1.00;;;;;;5042810;28;20168;-74
2021/01/03 09:45:48;;;;;;;10.05;4.90;;;4.50;1.00;;;;;;5042725;28;20198;-78
2021/01/03 09:48:46;;;;;;;11.07;5.45;;;4.40;1.00;;;;;;5044860;28;20179;-77
2021/01/03 09:51:49;;;;;;;15.43;5.63;;;4.50;1.00;;;;;;5044269;28;20222;-77
2021/01/03 09:54:54;;;;;;;10.88;5.18;;;4.60;1.00;;;;;;5053474;28;20203;-77
2021/01/03 09:57:31;;;;;;;7.28;4.60;;;4.50;1.00;;;;;;5051742;28;20677;-74
2021/01/03 09:59:57;;;;;;;10.43;4.63;;;4.50;1.00;;;;;;5064785;28;20204;-77
2021/01/03 10:02:24;;;;;;;10.07;5.47;;;4.70;1.00;;;;;;5037179;28;20203;-76
2021/01/03 10:04:50;;;;;;;11.23;5.15;;;4.70;1.00;;;;;;5043395;28;20650;-77
2021/01/03 10:07:24;;;;;;;9.88;4.75;;;4.70;1.00;;;;;;5056446;28;20642;-74
2021/01/03 10:09:56;;;;;;;9.27;4.80;;;4.70;1.00;;;;;;5036566;28;20528;-74
2021/01/03 10:12:38;;;;;;;6.85;4.00;;;4.70;1.00;;;;;;5036841;28;20196;-79
2021/01/03 10:15:15;;;;;;;10.60;4.78;;;4.90;1.00;;;;;;5039918;28;20167;-77
2021/01/03 10:17:54;;;;;;;9.55;4.63;;;4.90;1.00;;;;;;5054540;28;20172;-78
2021/01/03 10:20:48;;;;;;;5.28;3.67;;;4.80;1.00;;;;;;5056398;28;20593;-78
2021/01/03 10:23:34;;;;;;;8.57;4.20;;;4.80;1.00;;;;;;5051669;28;20190;-78
2021/01/03 10:26:02;;;;;;;7.57;4.10;;;4.70;1.00;;;;;;5015899;28;20242;-78
2021/01/03 10:28:30;;;;;;;7.95;4.10;;;4.70;1.00;;;;;;5034141;28;20223;-77
2021/01/03 10:30:56;;;;;;;6.28;4.28;;;4.80;1.00;;;;;;5033999;28;20643;-78
2021/01/03 10:33:22;;;;;;;6.57;3.90;;;;;;;;;;5025624;28;20255;-75
2021/01/03 10:35:48;;;;;;;9.65;4.55;;;;;;;;;;5014208;28;20365;-74
2021/01/03 10:38:14;;;;;;;8.85;4.40;;;4.80;1.00;;;;;;5027249;28;20195;-74
2021/01/03 10:40:40;;;;;;;6.60;4.13;;;;;;;;;;5034219;28;20165;-74
2021/01/03 10:43:06;;;;;;;7.40;4.25;;;4.90;1.00;;;;;;5021842;28;20723;-74
2021/01/03 10:45:32;;;;;;;8.48;4.40;;;4.70;1.00;;;;;;5014926;28;20196;-74
2021/01/03 10:47:58;;;;;;;7.60;4.70;;;;;;;;;;5033699;28;20526;-74
2021/01/03 10:50:24;;;;;;;9.48;4.32;;;;;;;;;;5028967;28;20598;-74
2021/01/03 10:52:50;;;;;;;7.18;4.20;;;4.70;1.00;;;;;;5022839;28;20211;-74
2021/01/03 10:55:20;;;;;;;7.07;4.20;;;3.10;1.00;;;;;;5033074;28;20184;-74
2021/01/03 10:57:45;;;;;;;5.97;3.90;;;4.80;1.00;;;;;;5033463;28;20235;-74
2021/01/03 11:00:12;;;;;;;8.63;4.17;;;4.80;1.00;;;;;;5038408;28;20197;-74
2021/01/03 11:02:38;;;;;;;6.05;4.28;;;4.70;1.00;;;;;;5023749;28;20195;-74
2021/01/03 11:05:05;;;;;;;3.67;3.23;;;4.80;1.00;;;;;;5039699;28;20192;-74
2021/01/03 11:07:31;;;;;;;6.95;3.95;;;4.80;1.00;;;;;;5034301;28;20169;-74
2021/01/03 11:09:57;;;;;;;6.70;4.13;;;4.80;1.00;;;;;;5050890;28;20244;-74
2021/01/03 11:12:23;;;;;;;7.20;4.73;;;;;;;;;;5053761;28;20468;-78
2021/01/03 11:14:49;;;;;;;5.93;3.80;;;;;;;;;;5036487;28;20168;-78
2021/01/03 11:17:16;;;;;;;8.97;4.43;;;4.80;1.00;;;;;;5035401;28;20164;-78
2021/01/03 11:19:42;;;;;;;8.73;3.78;;;4.70;1.00;;;;;;5035169;28;20430;-78
2021/01/03 11:22:11;;;;;;;9.00;4.97;;;4.70;1.00;;;;;;5038061;28;20184;-78
2021/01/03 11:24:37;;;;;;;6.68;4.05;;;4.80;1.00;;;;;;5042591;28;20258;-78
2021/01/03 11:27:06;;;;;;;4.43;3.40;;;4.60;1.00;;;;;;5048546;28;20230;-74
2021/01/03 11:29:32;;;;;;;7.50;4.70;;;;;;;;;;5054957;28;20152;-74
2021/01/03 11:32:00;;;;;;;5.37;3.43;;;4.70;1.00;;;;;;5036334;28;20203;-74
2021/01/03 11:34:32;;;;;;;6.45;4.00;;;4.60;1.00;;;;;;5045483;28;20913;-74
2021/01/03 11:37:02;;;;;;;12.23;3.20;;;4.40;1.00;;;;;;5052277;28;20176;-75
2021/01/03 11:39:30;;;;;;;7.68;4.28;;;4.30;1.00;;;;;;5049938;28;20615;-74
2021/01/03 11:41:58;;;;;;;5.75;3.80;;;4.40;1.00;;;;;;5034939;28;20226;-74
2021/01/03 11:44:25;;;;;;;6.80;4.25;;;4.40;1.00;;;;;;5034914;28;20248;-74
2021/01/03 11:46:57;;;;;;;5.75;4.18;;;4.30;1.00;;;;;;5051471;28;20199;-74
2021/01/03 11:49:23;;;;;;;6.95;3.80;;;4.50;1.00;;;;;;5053069;28;20160;-74
2021/01/03 11:51:49;;;;;;;7.00;4.03;;;;;;;;;;5053161;28;20637;-74
2021/01/03 11:54:15;;;;;;;5.63;4.18;;;4.50;1.00;;;;;;5053202;28;20203;-74
2021/01/03 11:56:41;;;;;;;5.57;3.90;;;4.40;1.00;;;;;;5037243;28;20255;-74
2021/01/03 11:59:07;;;;;;;7.33;4.47;;;4.40;1.00;;;;;;5033731;28;20698;-74
2021/01/03 12:01:33;;;;;;;6.80;3.90;;;;;;;;;;5034833;28;20231;-74
2021/01/03 12:04:04;;;;;;;9.40;4.80;;;4.40;1.00;;;;;;5034487;28;20164;-74
2021/01/03 12:06:29;;;;;;;6.40;4.10;;;4.50;1.00;;;;;;5034595;28;20914;-74
2021/01/03 12:08:55;;;;;;;7.40;4.13;;;;;;;;;;5050620;28;20186;-74
2021/01/03 12:11:25;;;;;;;10.50;4.70;;;4.40;1.00;;;;;;5052581;28;20543;-75
2021/01/03 12:13:53;;;;;;;6.78;3.65;;;4.50;1.00;;;;;;5053178;28;20464;-75
2021/01/03 12:16:24;;;;;;;6.05;3.70;;;4.50;1.00;;;;;;5050561;28;20190;-74
2021/01/03 12:18:50;;;;;;;5.93;3.45;;;4.40;1.00;;;;;;5039222;28;20176;-74
2021/01/03 12:21:21;;;;;;;6.65;4.15;;;4.30;1.00;;;;;;5034181;28;20686;-74
2021/01/03 12:23:47;;;;;;;6.15;4.05;;;;;;;;;;5051513;28;20582;-77
2021/01/03 12:26:13;;;;;;;5.70;3.47;;;;;;;;;;5048938;28;20180;-77
2021/01/03 12:28:38;;;;;;;8.23;4.00;;;4.00;1.00;;;;;;5052907;28;20407;-77
2021/01/03 12:31:10;;;;;;;6.70;3.93;;;4.00;1.00;;;;;;5053834;28;20425;-78
2021/01/03 12:33:35;;;;;;;6.22;4.10;;;4.00;1.00;;;;;;5046657;28;20660;-77
2021/01/03 12:36:01;;;;;;;6.93;4.23;;;4.00;1.00;;;;;;5033547;28;20188;-77
2021/01/03 12:38:27;;;;;;;7.50;4.13;;;;;;;;;;5033726;28;20156;-77
2021/01/03 12:40:53;;;;;;;7.40;3.33;;;4.00;1.00;;;;;;5033273;28;20153;-77
2021/01/03 12:43:19;;;;;;;9.97;4.70;;;;;;;;;;5033797;28;20226;-75
2021/01/03 12:45:45;;;;;;;7.03;4.35;;;;;;;;;;5035805;28;20181;-75
2021/01/03 12:48:11;;;;;;;12.10;5.20;;;4.10;1.00;;;;;;5052326;28;20187;-74
2021/01/03 12:50:37;;;;;;;7.03;3.87;;;;;;;;;;5053318;28;20893;-75
2021/01/03 12:53:02;;;;;;;7.63;4.13;;;4.10;1.00;;;;;;5052441;28;20505;-75
2021/01/03 12:55:28;;;;;;;8.13;3.40;;;;;;;;;;5039128;28;20330;-74
2021/01/03 12:57:58;;;;;;;7.63;4.23;;;4.00;1.00;;;;;;5049256;28;20678;-77
2021/01/03 13:00:24;;;;;;;5.47;3.38;;;3.80;1.00;;;;;;5033457;28;20469;-77
2021/01/03 13:02:50;;;;;;;4.70;3.20;;;;;;;;;;5037818;28;20594;-78
2021/01/03 13:05:17;;;;;;;4.15;3.50;;;3.90;1.00;;;;;;5051046;28;20908;-75
2021/01/03 13:07:44;;;;;;;6.60;3.85;;;3.90;1.00;;;;;;5053122;28;20179;-74
2021/01/03 13:10:10;;;;;;;7.82;3.78;;;3.90;1.00;;;;;;5053219;28;20243;-75
2021/01/03 13:12:36;;;;;;;5.90;3.65;;;;;;;;;;5053523;28;20195;-77
2021/01/03 13:15:02;;;;;;;5.43;3.87;;;;;;;;;;5053326;28;20163;-77
2021/01/03 13:17:28;;;;;;;8.25;4.50;;;;;;;;;;5052165;28;20393;-77
2021/01/03 13:19:54;;;;;;;6.00;4.10;;;4.10;1.00;;;;;;5044966;28;20582;-77
2021/01/03 13:22:20;;;;;;;11.10;3.80;;;;;;;;;;5033183;28;20434;-79
2021/01/03 13:24:46;;;;;;;5.68;3.72;;;;;;;;;;5034018;28;20187;-77
2021/01/03 13:27:11;;;;;;;10.47;3.43;;;4.10;1.00;;;;;;5043022;28;20176;-75
2021/01/03 13:29:37;;;;;;;7.80;3.33;;;;;;;;;;5033083;28;21002;-75
2021/01/03 13:32:03;;;;;;;8.33;4.20;;;;;;;;;;5038476;28;20172;-75
2021/01/03 13:34:29;;;;;;;6.45;3.30;;;4.20;1.00;;;;;;5032874;28;20545;-75
2021/01/03 13:36:55;;;;;;;5.67;3.93;;;;;;;;;;5034984;28;20259;-75
2021/01/03 13:39:21;;;;;;;7.00;3.70;;;;;;;;;;5052823;28;20167;-75
2021/01/03 13:41:48;;;;;;;7.38;4.28;;;;;;;;;;5052578;28;20402;-75
2021/01/03 13:44:13;;;;;;;7.40;3.53;;;4.00;1.00;;;;;;5034150;28;20243;-77
2021/01/03 13:46:40;;;;;;;7.00;4.47;;;;;;;;;;5032983;28;20291;-77
2021/01/03 13:49:09;;;;;;;7.45;4.55;;;4.10;1.00;;;;;;5048452;28;20183;-78
2021/01/03 13:51:35;;;;;;;8.80;3.88;;;4.00;1.00;;;;;;5033239;28;20169;-78
2021/01/03 13:54:01;;;;;;;6.82;3.95;;;4.10;1.00;;;;;;5040987;28;20198;-78
2021/01/03 13:56:31;;;;;;;7.43;3.90;;;4.10;1.00;;;;;;5052761;28;20156;-78
2021/01/03 13:58:57;;;;;;;5.47;3.53;;;4.00;1.00;;;;;;5052820;28;20183;-75
2021/01/03 14:01:30;;;;;;;5.20;3.40;;;4.00;1.00;;;;;;5052748;28;20218;-75
2021/01/03 14:03:56;;;;;;;6.18;3.47;;;4.10;1.00;;;;;;5052633;28;20183;-75
2021/01/03 14:06:22;;;;;;;7.40;4.10;;;;;;;;;;5052331;28;20163;-75
2021/01/03 14:08:48;;;;;;;5.53;3.47;;;4.20;1.00;;;;;;5052533;28;20401;-75
2021/01/03 14:11:30;;;;;;;7.50;4.30;;;4.10;1.00;;;;;;5052388;28;20168;-75